Time;durP1;ratioP1;P1;durP2;ratioP2;P2;SDS_P1;SDS_P2;PMS_P1;PMS_P2;Temp;Humidity;BMP_temperature;BMP_pressure;BME280_temperature;BME280_humidity;BME280_pressure;Samples;Min_cycle;Max_cycle;Signal;HPM_P1;HPM_P2
2022/07/03 00:01:31;;;;;;;3.47;2.63;;;;;;;;;;5033732;28;20024;-75
2022/07/03 00:03:56;;;;;;;3.45;2.67;;;;;;;;;;5014855;28;20033;-75
2022/07/03 00:06:22;;;;;;;2.88;2.10;;;;;;;;;;5031571;28;20459;-75
2022/07/03 00:08:47;;;;;;;4.03;2.83;;;;;;;;;;5013118;28;20045;-75
2022/07/03 00:11:12;;;;;;;2.70;2.50;;;;;;;;;;5031488;28;20463;-76
2022/07/03 00:13:38;;;;;;;3.88;2.50;;;;;;;;;;5031604;28;20100;-76
2022/07/03 00:16:03;;;;;;;3.78;2.85;;;;;;;;;;5031407;28;20033;-76
2022/07/03 00:18:29;;;;;;;5.38;2.88;;;;;;;;;;5013537;28;20018;-75
2022/07/03 00:21:01;;;;;;;3.17;2.92;;;;;;;;;;5032450;28;20017;-76
2022/07/03 00:23:29;;;;;;;4.45;3.08;;;;;;;;;;5015846;28;20017;-74
2022/07/03 00:25:54;;;;;;;3.05;2.63;;;;;;;;;;5014511;28;20043;-75
2022/07/03 00:28:20;;;;;;;3.72;3.25;;;;;;;;;;5013428;28;20162;-75
2022/07/03 00:30:48;;;;;;;4.18;3.15;;;;;;;;;;5031292;28;20056;-75
2022/07/03 00:33:14;;;;;;;8.35;3.00;;;;;;;;;;5013539;28;20017;-75
2022/07/03 00:35:39;;;;;;;3.83;2.97;;;;;;;;;;5013582;28;20027;-76
2022/07/03 00:38:04;;;;;;;5.18;3.20;;;;;;;;;;5013798;28;20013;-75
2022/07/03 00:40:30;;;;;;;3.85;3.53;;;;;;;;;;5014364;28;20414;-75
2022/07/03 00:42:55;;;;;;;4.88;3.13;;;;;;;;;;5033486;28;20017;-75
2022/07/03 00:45:21;;;;;;;3.80;2.83;;;;;;;;;;5033426;28;20396;-74
2022/07/03 00:47:46;;;;;;;4.13;3.42;;;;;;;;;;5033454;28;20025;-74
2022/07/03 00:50:12;;;;;;;4.32;3.08;;;;;;;;;;5033284;28;20017;-75
2022/07/03 00:52:38;;;;;;;4.90;3.50;;;;;;;;;;5033625;28;20044;-75
2022/07/03 00:55:07;;;;;;;6.72;3.58;;;;;;;;;;5033504;28;20021;-75
2022/07/03 00:57:32;;;;;;;5.50;2.85;;;;;;;;;;5015341;28;20030;-75
2022/07/03 00:59:57;;;;;;;3.53;3.08;;;;;;;;;;5015446;28;20018;-75
2022/07/03 01:02:23;;;;;;;4.82;3.72;;;;;;;;;;5015546;28;20478;-75
2022/07/03 01:04:51;;;;;;;4.20;3.13;;;;;;;;;;5032929;28;20451;-76
2022/07/03 01:07:22;;;;;;;5.05;3.10;;;;;;;;;;5033144;28;20268;-75
2022/07/03 01:09:54;;;;;;;4.45;3.78;;;;;;;;;;5033364;28;20032;-75
2022/07/03 01:12:19;;;;;;;;;;;;;;;;;;5033624;28;20442;-75
2022/07/03 01:15:06;;;;;;;4.40;3.92;;;;;;;;;;5032811;28;19935;-76
2022/07/03 01:17:37;;;;;;;6.95;4.28;;;;;;;;;;5014987;28;20417;-74
2022/07/03 01:20:03;;;;;;;;;;;;;;;;;;5034419;28;20013;-75
2022/07/03 01:22:44;;;;;;;4.68;4.15;;;;;;;;;;5036966;28;19912;-74
2022/07/03 01:25:22;;;;;;;4.82;4.10;;;;;;;;;;5018938;28;20010;-75
2022/07/03 01:27:49;;;;;;;6.95;4.50;;;;;;;;;;5018471;28;20045;-75
2022/07/03 01:30:14;;;;;;;4.95;4.45;;;;;;;;;;5036624;28;20434;-75
2022/07/03 01:32:44;;;;;;;5.65;4.88;;;;;;;;;;5036620;28;20052;-74
2022/07/03 01:35:15;;;;;;;8.20;4.78;;;;;;;;;;5036679;28;20033;-73
2022/07/03 01:37:40;;;;;;;5.40;4.90;;;;;;;;;;5036563;28;20022;-76
2022/07/03 01:40:06;;;;;;;7.30;4.78;;;;;;;;;;5036531;28;20076;-73
2022/07/03 01:42:37;;;;;;;6.05;5.47;;;;;;;;;;5018626;28;20025;-75
2022/07/03 01:45:02;;;;;;;6.63;5.43;;;;;;;;;;5018322;28;20068;-74
2022/07/03 01:47:28;;;;;;;6.50;4.97;;;;;;;;;;5036527;28;20021;-75
2022/07/03 01:49:53;;;;;;;5.63;5.07;;;;;;;;;;5018492;28;20375;-75
2022/07/03 01:52:20;;;;;;;7.50;5.15;;;;;;;;;;5018464;28;20020;-74
2022/07/03 01:54:46;;;;;;;6.82;5.22;;;;;;;;;;5018403;28;20108;-75
2022/07/03 01:57:11;;;;;;;7.88;5.40;;;;;;;;;;5018458;28;20017;-75
2022/07/03 01:59:36;;;;;;;5.65;5.03;;;;;;;;;;5036456;28;20082;-74
2022/07/03 02:02:04;;;;;;;6.77;5.17;;;;;;;;;;5036326;28;20048;-75
2022/07/03 02:04:34;;;;;;;5.10;4.40;;;;;;;;;;5018012;28;20765;-75
2022/07/03 02:07:08;;;;;;;5.30;4.80;;;;;;;;;;5035989;28;20013;-75
2022/07/03 02:09:51;;;;;;;5.13;4.60;;;;;;;;;;5018216;28;20060;-75
2022/07/03 02:12:18;;;;;;;7.82;4.85;;;;;;;;;;5035924;28;20075;-75
2022/07/03 02:14:48;;;;;;;6.00;4.70;;;;;;;;;;5036086;28;20026;-75
2022/07/03 02:17:16;;;;;;;5.25;4.65;;;;;;;;;;5018032;28;20507;-75
2022/07/03 02:19:42;;;;;;;5.28;4.57;;;;;;;;;;5018226;28;20384;-74
2022/07/03 02:22:08;;;;;;;5.07;4.00;;;;;;;;;;5035706;28;20485;-74
2022/07/03 02:24:40;;;;;;;5.72;4.25;;;;;;;;;;5017820;28;20175;-74
2022/07/03 02:27:08;;;;;;;5.65;4.47;;;;;;;;;;5017365;28;20045;-74
2022/07/03 02:29:36;;;;;;;6.30;4.57;;;;;;;;;;5035514;28;20029;-75
2022/07/03 02:32:07;;;;;;;5.20;4.20;;;;;;;;;;5034928;28;20415;-74
2022/07/03 02:34:33;;;;;;;5.13;4.27;;;;;;;;;;5017743;28;20178;-74
2022/07/03 02:37:14;;;;;;;4.72;4.30;;;;;;;;;;5017639;28;20026;-75
2022/07/03 02:39:51;;;;;;;4.75;3.70;;;;;;;;;;5035494;28;20486;-74
2022/07/03 02:42:24;;;;;;;5.78;4.50;;;;;;;;;;5017597;28;20048;-75
2022/07/03 02:44:51;;;;;;;5.03;4.53;;;;;;;;;;5017432;28;20030;-75
2022/07/03 02:47:16;;;;;;;5.05;4.20;;;;;;;;;;5035304;28;20036;-75
2022/07/03 02:49:43;;;;;;;4.97;4.40;;;;;;;;;;5035182;28;20463;-73
2022/07/03 02:52:12;;;;;;;5.97;3.95;;;;;;;;;;5035053;28;20268;-75
2022/07/03 02:54:42;;;;;;;6.65;4.35;;;;;;;;;;5017354;28;20014;-74
2022/07/03 02:57:08;;;;;;;5.47;4.20;;;;;;;;;;5035140;28;20041;-74
2022/07/03 02:59:42;;;;;;;5.30;4.53;;;;;;;;;;5017193;28;20434;-75
2022/07/03 03:02:13;;;;;;;6.75;4.85;;;;;;;;;;5017201;28;20025;-75
2022/07/03 03:04:41;;;;;;;5.15;4.47;;;;;;;;;;5035104;28;20018;-75
2022/07/03 03:07:17;;;;;;;5.20;4.70;;;;;;;;;;5034820;28;20080;-75
2022/07/03 03:09:43;;;;;;;6.00;4.68;;;;;;;;;;5016983;28;20059;-75
2022/07/03 03:12:09;;;;;;;8.10;5.20;;;;;;;;;;5016909;28;20022;-75
2022/07/03 03:14:59;;;;;;;9.48;4.93;;;;;;;;;;5034924;28;20101;-73
2022/07/03 03:17:25;;;;;;;5.72;4.65;;;;;;;;;;5016818;28;20024;-75
2022/07/03 03:19:52;;;;;;;4.72;4.22;;;;;;;;;;5034624;28;20018;-74
2022/07/03 03:22:36;;;;;;;6.72;4.30;;;;;;;;;;5034398;28;20022;-74
2022/07/03 03:25:02;;;;;;;6.85;4.97;;;;;;;;;;5034720;28;20025;-75
2022/07/03 03:27:28;;;;;;;5.88;4.63;;;;;;;;;;5034526;28;20038;-75
2022/07/03 03:29:53;;;;;;;6.43;4.80;;;;;;;;;;5016540;28;20421;-75
2022/07/03 03:32:18;;;;;;;6.53;4.72;;;;;;;;;;5016523;28;20017;-73
2022/07/03 03:34:45;;;;;;;4.85;4.43;;;;;;;;;;5034300;28;20022;-75
2022/07/03 03:37:11;;;;;;;5.10;4.60;;;;;;;;;;5034275;28;20033;-75
2022/07/03 03:39:37;;;;;;;5.68;4.63;;;;;;;;;;5034528;28;20033;-75
2022/07/03 03:42:03;;;;;;;5.50;4.53;;;;;;;;;;5016572;28;20027;-74
2022/07/03 03:44:29;;;;;;;4.18;3.78;;;;;;;;;;5033928;28;20435;-74
2022/07/03 03:46:55;;;;;;;5.47;4.88;;;;;;;;;;5034015;28;20490;-74
2022/07/03 03:49:21;;;;;;;5.50;4.90;;;;;;;;;;5033926;28;20033;-74
2022/07/03 03:51:46;;;;;;;5.43;4.80;;;;;;;;;;5016358;28;20041;-74
2022/07/03 03:54:11;;;;;;;5.10;4.60;;;;;;;;;;5016277;28;20091;-74
2022/07/03 03:56:37;;;;;;;5.80;4.85;;;;;;;;;;5016246;28;20492;-74
2022/07/03 03:59:02;;;;;;;5.25;4.75;;;;;;;;;;5033897;28;20037;-74
2022/07/03 04:01:28;;;;;;;5.72;4.57;;;;;;;;;;5033915;28;20467;-74
2022/07/03 04:03:53;;;;;;;4.80;4.30;;;;;;;;;;5033547;28;20025;-75
2022/07/03 04:06:19;;;;;;;8.02;5.00;;;;;;;;;;5015890;28;20029;-75
2022/07/03 04:08:45;;;;;;;5.72;5.18;;;;;;;;;;5033680;28;20049;-75
2022/07/03 04:11:10;;;;;;;6.90;5.15;;;;;;;;;;5034141;28;20080;-75
2022/07/03 04:13:35;;;;;;;5.30;4.80;;;;;;;;;;5033824;28;20036;-75
2022/07/03 04:16:01;;;;;;;5.57;5.00;;;;;;;;;;5015947;28;20450;-74
2022/07/03 04:18:29;;;;;;;6.00;5.10;;;;;;;;;;5032831;28;20030;-74
2022/07/03 04:20:55;;;;;;;6.30;5.68;;;;;;;;;;5033662;28;20029;-74
2022/07/03 04:23:21;;;;;;;5.68;5.00;;;;;;;;;;5015962;28;20033;-74
2022/07/03 04:25:48;;;;;;;8.02;5.13;;;;;;;;;;5033572;28;20033;-75
2022/07/03 04:28:14;;;;;;;7.88;5.75;;;;;;;;;;5015805;28;20057;-75
2022/07/03 04:30:41;;;;;;;6.07;5.45;;;;;;;;;;5033448;28;20457;-75
2022/07/03 04:33:07;;;;;;;6.28;5.28;;;;;;;;;;5015741;28;20128;-75
2022/07/03 04:35:34;;;;;;;5.50;4.88;;;;;;;;;;5015813;28;20076;-75
2022/07/03 04:38:00;;;;;;;7.10;5.00;;;;;;;;;;4999546;28;20038;-75
2022/07/03 04:40:26;;;;;;;8.40;5.50;;;;;;;;;;5015713;28;20037;-74
2022/07/03 04:42:52;;;;;;;6.13;5.53;;;;;;;;;;5033599;28;20104;-74
2022/07/03 04:45:18;;;;;;;8.43;5.20;;;;;;;;;;5033782;28;20431;-75
2022/07/03 04:47:45;;;;;;;5.50;4.78;;;;;;;;;;5015777;28;20113;-75
2022/07/03 04:50:11;;;;;;;9.38;5.55;;;;;;;;;;5033657;28;20030;-76
2022/07/03 04:52:37;;;;;;;10.30;5.70;;;;;;;;;;5015541;28;20029;-75
2022/07/03 04:55:04;;;;;;;6.53;5.47;;;;;;;;;;5016635;28;20064;-75
2022/07/03 04:57:30;;;;;;;8.07;6.40;;;;;;;;;;5019412;28;20163;-74
2022/07/03 05:00:01;;;;;;;8.90;6.72;;;;;;;;;;5037268;28;20251;-76
2022/07/03 05:02:28;;;;;;;9.13;6.43;;;;;;;;;;5019439;28;20022;-75
2022/07/03 05:04:53;;;;;;;9.93;6.10;;;;;;;;;;5037170;28;20017;-77
2022/07/03 05:07:20;;;;;;;8.33;6.03;;;;;;;;;;5037150;28;20020;-77
2022/07/03 05:09:46;;;;;;;8.05;6.35;;;;;;;;;;5037122;28;20271;-77
2022/07/03 05:12:12;;;;;;;7.57;5.95;;;;;;;;;;5018920;28;20354;-76
2022/07/03 05:14:38;;;;;;;9.27;6.05;;;;;;;;;;5018453;28;20056;-79
2022/07/03 05:17:06;;;;;;;7.88;6.10;;;;;;;;;;5036577;28;20492;-77
2022/07/03 05:19:32;;;;;;;7.45;6.63;;;;;;;;;;5036790;28;20064;-76
2022/07/03 05:21:58;;;;;;;9.02;6.10;;;;;;;;;;5036748;28;20013;-76
2022/07/03 05:24:24;;;;;;;7.97;5.77;;;;;;;;;;5036648;28;20017;-76
2022/07/03 05:26:50;;;;;;;7.05;6.32;;;;;;;;;;5036524;28;20641;-76
2022/07/03 05:29:15;;;;;;;7.97;6.25;;;;;;;;;;5036401;28;20021;-76
2022/07/03 05:31:40;;;;;;;6.30;5.27;;;;;;;;;;5018047;28;20029;-76
2022/07/03 05:34:08;;;;;;;8.70;6.17;;;;;;;;;;5036072;28;20271;-76
2022/07/03 05:36:33;;;;;;;7.32;5.93;;;;;;;;;;5036446;28;20294;-76
2022/07/03 05:41:44;;;;;;;6.47;5.72;;;;;;;;;;5036403;28;20141;-77
2022/07/03 05:44:09;;;;;;;6.65;5.43;;;;;;;;;;5036258;28;20037;-84
2022/07/03 05:46:36;;;;;;;5.97;5.37;;;;;;;;;;5018745;28;20455;-77
2022/07/03 05:49:01;;;;;;;7.32;5.55;;;;;;;;;;5036240;28;20264;-76
2022/07/03 05:51:26;;;;;;;8.20;5.30;;;;;;;;;;5024032;28;20025;-76
2022/07/03 05:53:54;;;;;;;6.82;5.88;;;;;;;;;;5026546;28;20022;-78
2022/07/03 05:56:20;;;;;;;8.05;4.85;;;;;;;;;;5013748;28;20102;-77
2022/07/03 05:58:45;;;;;;;6.97;4.85;;;;;;;;;;5034296;28;20068;-76
2022/07/03 06:01:11;;;;;;;5.73;4.60;;;;;;;;;;5035112;28;20040;-77
2022/07/03 06:03:38;;;;;;;6.15;4.53;;;;;;;;;;5036153;28;20268;-78
2022/07/03 06:06:04;;;;;;;6.88;5.20;;;;;;;;;;5035400;28;20020;-78
2022/07/03 06:08:29;;;;;;;4.50;3.28;;;;;;;;;;5017647;28;20108;-77
2022/07/03 06:10:57;;;;;;;7.13;5.13;;;;;;;;;;5035983;28;20060;-78
2022/07/03 06:13:23;;;;;;;6.07;5.13;;;;;;;;;;5036042;28;20358;-78
2022/07/03 06:15:48;;;;;;;5.38;4.88;;;;;;;;;;5001777;28;20454;-77
2022/07/03 06:18:13;;;;;;;4.28;3.60;;;;;;;;;;5001638;28;20017;-79
2022/07/03 06:20:40;;;;;;;6.37;4.37;;;;;;;;;;5017870;28;20028;-77
2022/07/03 06:23:05;;;;;;;4.90;4.50;;;;;;;;;;5035805;28;20101;-79
2022/07/03 06:25:30;;;;;;;4.70;4.17;;;;;;;;;;5035660;28;20383;-79
2022/07/03 06:27:56;;;;;;;5.33;3.60;;;;;;;;;;5035170;28;20069;-80
2022/07/03 06:30:24;;;;;;;4.32;3.42;;;;;;;;;;5035360;28;20105;-80
2022/07/03 06:32:49;;;;;;;4.35;3.95;;;;;;;;;;5035534;28;20032;-81
2022/07/03 06:35:16;;;;;;;6.43;3.80;;;;;;;;;;5035730;28;20021;-81
2022/07/03 06:37:42;;;;;;;4.07;3.70;;;;;;;;;;5035435;28;20032;-79
2022/07/03 06:40:08;;;;;;;3.33;2.55;;;;;;;;;;5035454;28;20014;-83
2022/07/03 06:42:33;;;;;;;3.97;3.67;;;;;;;;;;5036457;28;20378;-81
2022/07/03 06:45:01;;;;;;;4.10;3.80;;;;;;;;;;5037212;28;20533;-79
2022/07/03 06:47:27;;;;;;;3.05;2.78;;;;;;;;;;5055267;28;20048;-79
2022/07/03 06:49:52;;;;;;;2.92;2.72;;;;;;;;;;5037156;28;20098;-78
2022/07/03 06:52:18;;;;;;;3.93;3.63;;;;;;;;;;5055885;28;20061;-78
2022/07/03 06:54:44;;;;;;;4.15;3.60;;;;;;;;;;5055239;28;20040;-79
2022/07/03 06:57:18;;;;;;;3.42;3.13;;;;;;;;;;5055359;28;20513;-80
2022/07/03 06:59:44;;;;;;;2.88;2.30;;;;;;;;;;5055216;28;20063;-79
2022/07/03 07:02:11;;;;;;;3.22;2.92;;;;;;;;;;5036666;28;20033;-80
2022/07/03 07:04:36;;;;;;;2.63;2.42;;;;;;;;;;5054924;28;20020;-79
2022/07/03 07:07:01;;;;;;;2.33;2.13;;;;;;;;;;5036944;28;20083;-79
2022/07/03 07:09:27;;;;;;;3.83;2.28;;;;;;;;;;5036963;28;20029;-78
2022/07/03 07:11:52;;;;;;;3.27;3.00;;;;;;;;;;5054840;28;20027;-79
2022/07/03 07:14:19;;;;;;;2.70;2.50;;;;;;;;;;5054113;28;20275;-81
2022/07/03 07:16:45;;;;;;;2.20;2.05;;;;;;;;;;5054783;28;20055;-81
2022/07/03 07:19:11;;;;;;;2.53;2.33;;;;;;;;;;5054503;28;20049;-80
2022/07/03 07:21:37;;;;;;;2.30;2.13;;;;;;;;;;5054045;28;20025;-83
2022/07/03 07:24:05;;;;;;;2.28;1.80;;;;;;;;;;5037501;28;20108;-82
2022/07/03 07:26:32;;;;;;;2.13;1.70;;;;;;;;;;5054449;28;20040;-80
2022/07/03 07:28:59;;;;;;;2.00;1.83;;;;;;;;;;5054292;28;20406;-79
2022/07/03 07:31:26;;;;;;;2.50;1.63;;;;;;;;;;5054353;28;20032;-82
2022/07/03 07:33:51;;;;;;;1.90;1.80;;;;;;;;;;5054260;28;20021;-84
2022/07/03 07:36:17;;;;;;;1.73;1.53;;;;;;;;;;5054084;28;20017;-83
2022/07/03 07:38:43;;;;;;;2.05;1.92;;;;;;;;;;5036215;28;20489;-82
2022/07/03 07:41:10;;;;;;;1.77;1.67;;;;;;;;;;5054326;28;20498;-82
2022/07/03 07:43:35;;;;;;;2.38;1.85;;;;;;;;;;5036403;28;20032;-86
2022/07/03 07:46:02;;;;;;;2.00;1.90;;;;;;;;;;5054407;28;20013;-81
2022/07/03 07:48:28;;;;;;;1.90;1.75;;;;;;;;;;5050501;28;20346;-80
2022/07/03 07:50:53;;;;;;;2.55;1.50;;;;;;;;;;5053050;28;20017;-81
2022/07/03 07:53:27;;;;;;;1.50;1.40;;;;;;;;;;5036522;28;20025;-78
2022/07/03 07:55:54;;;;;;;1.40;1.30;;;;;;;;;;5045207;28;20104;-80
2022/07/03 07:58:22;;;;;;;1.73;1.63;;;;;;;;;;5052969;28;20435;-79
2022/07/03 08:06:20;;;;;;;1.90;1.80;;;;;;;;;;5039215;28;20154;-80
2022/07/03 08:08:45;;;;;;;1.55;1.45;;;;;;;;;;5053869;28;20514;-81
2022/07/03 08:11:10;;;;;;;2.20;2.00;;;;;;;;;;5053576;28;20025;-81
2022/07/03 08:13:37;;;;;;;2.70;2.20;;;;;;;;;;5035664;28;20382;-81
2022/07/03 08:16:03;;;;;;;1.50;1.40;;;;;;;;;;5035353;28;20461;-82
2022/07/03 08:18:30;;;;;;;2.70;1.80;;;;;;;;;;5019193;28;20116;-80
2022/07/03 08:20:55;;;;;;;1.60;1.50;;;;;;;;;;5053423;28;20092;-78
2022/07/03 08:23:21;;;;;;;1.80;1.70;;;;;;;;;;5052798;28;20108;-78
2022/07/03 08:25:46;;;;;;;1.80;1.50;;;;;;;;;;5052958;28;20033;-79
2022/07/03 08:28:12;;;;;;;1.70;1.60;;;;;;;;;;5052397;28;20055;-82
2022/07/03 08:30:37;;;;;;;2.00;1.63;;;;;;;;;;5034750;28;20095;-80
2022/07/03 08:33:03;;;;;;;1.60;1.50;;;;;;;;;;5053664;28;20013;-81
2022/07/03 08:35:28;;;;;;;2.28;1.75;;;;;;;;;;5052945;28;20027;-79
2022/07/03 08:37:53;;;;;;;1.55;1.45;;;;;;;;;;5014587;28;20053;-80
2022/07/03 08:40:19;;;;;;;2.60;2.00;;;;;;;;;;5031978;28;20018;-80
2022/07/03 08:42:49;;;;;;;2.67;1.77;;;;;;;;;;5039171;28;20029;-80
2022/07/03 08:45:15;;;;;;;2.40;2.00;;;;;;;;;;5015381;28;20474;-81
2022/07/03 08:47:44;;;;;;;2.00;1.90;;;;;;;;;;5033463;28;20033;-81
2022/07/03 08:50:12;;;;;;;2.20;1.90;;;;;;;;;;5015578;28;20152;-78
2022/07/03 08:52:37;;;;;;;1.73;1.63;;;;;;;;;;5033334;28;20022;-78
2022/07/03 08:55:04;;;;;;;2.77;1.77;;;;;;;;;;5015464;28;20021;-80
2022/07/03 08:57:30;;;;;;;2.58;2.17;;;;;;;;;;5015446;28;20014;-79
2022/07/03 08:59:57;;;;;;;1.95;1.73;;;;;;;;;;5032766;28;20041;-81
2022/07/03 09:02:22;;;;;;;1.70;1.60;;;;;;;;;;5015757;28;20018;-76
2022/07/03 09:04:48;;;;;;;2.83;1.60;;;;;;;;;;4998982;28;20025;-77
2022/07/03 09:07:14;;;;;;;2.42;1.95;;;;;;;;;;5015370;28;20172;-79
2022/07/03 09:09:39;;;;;;;1.88;1.75;;;;;;;;;;5033010;28;20442;-80
2022/07/03 09:12:05;;;;;;;1.27;1.17;;;;;;;;;;5033019;28;20360;-81
2022/07/03 09:14:33;;;;;;;1.90;1.80;;;;;;;;;;5014984;28;20061;-83
2022/07/03 09:16:59;;;;;;;2.00;1.90;;;;;;;;;;5032927;28;20116;-80
2022/07/03 09:19:39;;;;;;;1.98;1.77;;;;;;;;;;5016915;28;20064;-77
2022/07/03 09:22:13;;;;;;;1.60;1.50;;;;;;;;;;5037354;28;20089;-81
2022/07/03 09:24:38;;;;;;;1.55;1.45;;;;;;;;;;5033758;28;20014;-77
2022/07/03 09:27:09;;;;;;;1.58;1.48;;;;;;;;;;5036895;28;20052;-82
2022/07/03 09:29:34;;;;;;;1.52;1.35;;;;;;;;;;5015341;28;20087;-81
2022/07/03 09:32:01;;;;;;;2.90;1.57;;;;;;;;;;5015039;28;20420;-83
2022/07/03 09:34:26;;;;;;;1.50;1.40;;;;;;;;;;5032838;28;20025;-82
2022/07/03 09:36:52;;;;;;;1.60;1.50;;;;;;;;;;5039101;28;20032;-82
2022/07/03 09:39:18;;;;;;;1.95;1.67;;;;;;;;;;5017907;28;20383;-79
2022/07/03 09:41:52;;;;;;;1.73;1.63;;;;;;;;;;5037193;28;20166;-81
2022/07/03 09:44:37;;;;;;;1.65;1.55;;;;;;;;;;5038281;28;20013;-84
2022/07/03 09:47:22;;;;;;;1.92;1.83;;;;;;;;;;5050967;28;20017;-79
2022/07/03 09:49:47;;;;;;;1.55;1.45;;;;;;;;;;5017429;28;20036;-79
2022/07/03 09:52:31;;;;;;;2.67;1.80;;;;;;;;;;5017325;28;20018;-78
2022/07/03 09:55:00;;;;;;;1.60;1.50;;;;;;;;;;5016960;28;20723;-78
2022/07/03 09:57:29;;;;;;;1.58;1.48;;;;;;;;;;5000588;28;20374;-79
2022/07/03 10:00:13;;;;;;;1.40;1.30;;;;;;;;;;5024101;28;20029;-79
2022/07/03 10:02:57;;;;;;;1.50;1.40;;;;;;;;;;5034501;28;20006;-77
2022/07/03 10:05:34;;;;;;;1.73;1.63;;;;;;;;;;5020560;28;20018;-76
2022/07/03 10:08:02;;;;;;;1.67;1.58;;;;;;;;;;5025480;28;20022;-79
2022/07/03 10:10:28;;;;;;;2.05;1.80;;;;;;;;;;5025832;28;20031;-78
2022/07/03 10:12:54;;;;;;;1.90;1.60;;;;;;;;;;5029000;28;20026;-78
2022/07/03 10:15:20;;;;;;;1.35;1.25;;;;;;;;;;5012549;28;20101;-78
2022/07/03 10:17:50;;;;;;;2.88;1.80;;;;;;;;;;5011693;28;20037;-78
2022/07/03 10:20:19;;;;;;;1.73;1.40;;;;;;;;;;5030539;28;20061;-78
2022/07/03 10:22:47;;;;;;;1.73;1.63;;;;;;;;;;5005420;28;20374;-78
2022/07/03 10:25:13;;;;;;;1.65;1.55;;;;;;;;;;5018229;28;20014;-78
2022/07/03 10:27:39;;;;;;;3.35;1.90;;;;;;;;;;4988807;28;20042;-79
2022/07/03 10:30:04;;;;;;;2.00;1.40;;;;;;;;;;4999947;28;20049;-76
2022/07/03 10:32:32;;;;;;;1.75;1.65;;;;;;;;;;4998360;28;20045;-78
2022/07/03 10:34:58;;;;;;;1.70;1.60;;;;;;;;;;5003959;28;20022;-78
2022/07/03 10:37:28;;;;;;;1.70;1.60;;;;;;;;;;5002542;28;20017;-77
2022/07/03 10:44:45;;;;;;;2.57;2.00;;;;;;;;;;5017993;28;20058;-78
2022/07/03 10:45:35;;;;;;;2.35;1.67;;;;;;;;;;5023062;28;20079;-76
2022/07/03 10:48:00;;;;;;;4.28;1.98;;;;;;;;;;4998515;28;20030;-78
2022/07/03 10:50:26;;;;;;;2.33;1.73;;;;;;;;;;5015404;28;20058;-77
2022/07/03 10:52:51;;;;;;;2.50;2.15;;;;;;;;;;4996959;28;20273;-78
2022/07/03 10:55:17;;;;;;;1.70;1.60;;;;;;;;;;5015290;28;20021;-77
2022/07/03 10:57:43;;;;;;;1.80;1.70;;;;;;;;;;5015064;28;20449;-79
2022/07/03 11:00:12;;;;;;;2.42;2.00;;;;;;;;;;4997532;28;20022;-79
2022/07/03 11:02:38;;;;;;;2.25;1.95;;;;;;;;;;5014967;28;20026;-78
2022/07/03 11:05:04;;;;;;;1.70;1.60;;;;;;;;;;5015121;28;20105;-77
2022/07/03 11:07:32;;;;;;;2.33;2.13;;;;;;;;;;5014826;28;20024;-79
2022/07/03 11:10:15;;;;;;;3.13;2.03;;;;;;;;;;4997297;28;20029;-83
2022/07/03 11:12:49;;;;;;;2.38;2.17;;;;;;;;;;5015041;28;20045;-76
2022/07/03 11:15:30;;;;;;;2.15;2.05;;;;;;;;;;5002268;28;20104;-78
2022/07/03 11:18:06;;;;;;;2.60;1.85;;;;;;;;;;5034452;28;20017;-81
2022/07/03 11:20:33;;;;;;;2.10;1.92;;;;;;;;;;5034465;28;20013;-81
2022/07/03 11:23:10;;;;;;;1.85;1.75;;;;;;;;;;5034277;28;20032;-80
2022/07/03 11:25:45;;;;;;;2.50;2.30;;;;;;;;;;5034264;28;20469;-77
2022/07/03 11:28:30;;;;;;;2.38;1.80;;;;;;;;;;5034032;28;20091;-78
2022/07/03 11:31:16;;;;;;;3.72;2.38;;;;;;;;;;5034441;28;20375;-79
2022/07/03 11:33:44;;;;;;;3.45;2.00;;;;;;;;;;5034165;28;20017;-77
2022/07/03 11:36:11;;;;;;;2.35;2.15;;;;;;;;;;5033793;28;20021;-79
2022/07/03 11:38:37;;;;;;;1.83;1.73;;;;;;;;;;5016267;28;20021;-76
2022/07/03 11:41:06;;;;;;;2.15;2.05;;;;;;;;;;5016373;28;20112;-82
2022/07/03 11:43:34;;;;;;;2.85;1.65;;;;;;;;;;5034063;28;20056;-82
2022/07/03 11:45:59;;;;;;;2.22;2.00;;;;;;;;;;5016203;28;20516;-82
2022/07/03 11:48:26;;;;;;;2.25;2.05;;;;;;;;;;5016108;28;20112;-85
2022/07/03 11:50:51;;;;;;;2.10;1.88;;;;;;;;;;5016588;28;20022;-82
2022/07/03 11:53:20;;;;;;;2.33;2.20;;;;;;;;;;5016430;28;20508;-81
2022/07/03 11:55:49;;;;;;;2.72;2.25;;;;;;;;;;5016120;28;20036;-78
2022/07/03 11:58:14;;;;;;;2.45;2.25;;;;;;;;;;5033759;28;20109;-78
2022/07/03 12:00:40;;;;;;;2.33;2.13;;;;;;;;;;5033650;28;20089;-81
2022/07/03 12:03:07;;;;;;;2.33;2.13;;;;;;;;;;5033980;28;20025;-79
2022/07/03 12:05:33;;;;;;;2.10;2.00;;;;;;;;;;5015295;28;20022;-80
2022/07/03 12:08:04;;;;;;;2.40;2.00;;;;;;;;;;5017767;28;20470;-80
2022/07/03 12:10:40;;;;;;;2.00;1.80;;;;;;;;;;5017356;28;20021;-80
2022/07/03 12:13:18;;;;;;;2.17;1.98;;;;;;;;;;5016303;28;20044;-79
2022/07/03 12:15:43;;;;;;;2.33;2.00;;;;;;;;;;5034990;28;20041;-81
2022/07/03 12:18:10;;;;;;;2.80;2.53;;;;;;;;;;5016773;28;20057;-78
2022/07/03 12:20:35;;;;;;;1.88;1.70;;;;;;;;;;5033336;28;20302;-79
2022/07/03 12:23:01;;;;;;;2.03;1.83;;;;;;;;;;5015075;28;20045;-81
2022/07/03 12:25:29;;;;;;;2.13;1.92;;;;;;;;;;5015421;28;20041;-81
2022/07/03 12:27:55;;;;;;;2.28;1.90;;;;;;;;;;5014895;28;20049;-80
2022/07/03 12:30:25;;;;;;;2.03;1.92;;;;;;;;;;5014630;28;20017;-79
2022/07/03 12:32:51;;;;;;;2.53;2.33;;;;;;;;;;5032112;28;20063;-79
2022/07/03 12:35:23;;;;;;;2.00;1.80;;;;;;;;;;5015061;28;20021;-80
2022/07/03 12:37:48;;;;;;;2.35;2.13;;;;;;;;;;5015096;28;20017;-80
2022/07/03 12:40:14;;;;;;;2.20;2.00;;;;;;;;;;5031792;28;20024;-79
2022/07/03 12:42:44;;;;;;;2.33;2.13;;;;;;;;;;5032530;28;20305;-79
2022/07/03 12:45:11;;;;;;;2.28;2.08;;;;;;;;;;5050888;28;20032;-80
2022/07/03 12:47:36;;;;;;;3.67;1.90;;;;;;;;;;5032757;28;20574;-79
2022/07/03 12:50:03;;;;;;;2.17;2.00;;;;;;;;;;5032721;28;20028;-80
2022/07/03 12:52:29;;;;;;;2.30;2.10;;;;;;;;;;5050981;28;20025;-80
2022/07/03 12:54:54;;;;;;;2.30;2.13;;;;;;;;;;5034678;28;20474;-79
2022/07/03 13:00:05;;;;;;;2.20;2.10;;;;;;;;;;5052810;28;20037;-79
2022/07/03 13:02:31;;;;;;;3.20;2.03;;;;;;;;;;5052739;28;20017;-78
2022/07/03 13:04:58;;;;;;;2.25;2.05;;;;;;;;;;5053410;28;20021;-79
2022/07/03 13:07:27;;;;;;;2.70;2.30;;;;;;;;;;5053093;28;20024;-79
2022/07/03 13:09:53;;;;;;;2.15;1.95;;;;;;;;;;5035033;28;20087;-80
2022/07/03 13:12:25;;;;;;;2.00;1.80;;;;;;;;;;5034903;28;20066;-79
2022/07/03 13:15:00;;;;;;;2.45;2.05;;;;;;;;;;5052826;28;20143;-79
2022/07/03 13:17:44;;;;;;;2.30;2.10;;;;;;;;;;5056061;28;20017;-80
2022/07/03 13:20:09;;;;;;;1.90;1.75;;;;;;;;;;5056426;28;20039;-80
2022/07/03 13:22:35;;;;;;;2.28;1.90;;;;;;;;;;5038544;28;20021;-80
2022/07/03 13:25:00;;;;;;;2.63;2.42;;;;;;;;;;5056498;28;20021;-79
2022/07/03 13:27:26;;;;;;;1.90;1.80;;;;;;;;;;5054664;28;20107;-80
2022/07/03 13:29:51;;;;;;;2.95;2.20;;;;;;;;;;5055181;28;20024;-79
2022/07/03 13:32:17;;;;;;;2.67;2.10;;;;;;;;;;5038385;28;20037;-80
2022/07/03 13:34:42;;;;;;;2.40;2.10;;;;;;;;;;5056165;28;20021;-80
2022/07/03 13:37:07;;;;;;;2.07;1.90;;;;;;;;;;5056172;28;20021;-80
2022/07/03 13:39:32;;;;;;;2.97;2.30;;;;;;;;;;5056361;28;20336;-80
2022/07/03 13:41:58;;;;;;;2.50;2.30;;;;;;;;;;5056052;28;20570;-79
2022/07/03 13:44:23;;;;;;;3.17;2.10;;;;;;;;;;5056173;28;20017;-79
2022/07/03 13:46:48;;;;;;;2.50;2.30;;;;;;;;;;5056182;28;20104;-80
2022/07/03 13:49:13;;;;;;;2.33;1.90;;;;;;;;;;5056077;28;20731;-80
2022/07/03 13:51:39;;;;;;;2.17;1.97;;;;;;;;;;5038017;28;20274;-79
2022/07/03 13:54:04;;;;;;;2.70;2.13;;;;;;;;;;5056020;28;20021;-80
2022/07/03 13:56:29;;;;;;;2.10;1.90;;;;;;;;;;5056024;28;20351;-79
2022/07/03 13:58:55;;;;;;;2.38;2.17;;;;;;;;;;5055864;28;20349;-80
2022/07/03 14:01:20;;;;;;;2.47;2.28;;;;;;;;;;5037985;28;20373;-79
2022/07/03 14:03:45;;;;;;;2.28;2.08;;;;;;;;;;5055738;28;20351;-79
2022/07/03 14:06:11;;;;;;;1.83;1.60;;;;;;;;;;5037861;28;20109;-80
2022/07/03 14:08:36;;;;;;;2.40;2.20;;;;;;;;;;5037789;28;20025;-79
2022/07/03 14:11:01;;;;;;;2.13;1.92;;;;;;;;;;5055791;28;20075;-80
2022/07/03 14:13:27;;;;;;;1.63;1.53;;;;;;;;;;5055673;28;20033;-80
2022/07/03 14:15:52;;;;;;;2.67;2.47;;;;;;;;;;5037690;28;20271;-80
2022/07/03 14:18:18;;;;;;;3.83;2.65;;;;;;;;;;5055529;28;20089;-79
2022/07/03 14:20:43;;;;;;;2.20;2.00;;;;;;;;;;5037648;28;20020;-79
2022/07/03 14:23:08;;;;;;;2.77;1.70;;;;;;;;;;5037552;28;20013;-80
2022/07/03 14:25:34;;;;;;;2.00;1.90;;;;;;;;;;5037988;28;20267;-81
2022/07/03 14:33:27;;;;;;;2.33;2.13;;;;;;;;;;5055945;28;20036;-80
2022/07/03 14:35:52;;;;;;;2.08;1.88;;;;;;;;;;5055238;28;20022;-80
2022/07/03 14:38:19;;;;;;;2.35;2.15;;;;;;;;;;5037196;28;20044;-80
2022/07/03 14:40:44;;;;;;;3.72;1.88;;;;;;;;;;5037245;28;20437;-80
2022/07/03 14:43:10;;;;;;;1.63;1.52;;;;;;;;;;5055028;28;20592;-80
2022/07/03 14:45:35;;;;;;;2.28;2.08;;;;;;;;;;5037080;28;20382;-80
2022/07/03 14:48:01;;;;;;;2.00;1.80;;;;;;;;;;5036986;28;20473;-80
2022/07/03 14:50:26;;;;;;;1.77;1.65;;;;;;;;;;5037239;28;20489;-79
2022/07/03 14:52:51;;;;;;;1.65;1.55;;;;;;;;;;5054787;28;20025;-80
2022/07/03 14:55:17;;;;;;;1.52;1.42;;;;;;;;;;5036845;28;20079;-80
2022/07/03 14:57:49;;;;;;;1.75;1.50;;;;;;;;;;5054755;28;20343;-81
2022/07/03 15:00:15;;;;;;;2.10;1.77;;;;;;;;;;5054579;28;20355;-80
2022/07/03 15:02:43;;;;;;;1.60;1.50;;;;;;;;;;5054854;28;20028;-79
2022/07/03 15:05:09;;;;;;;3.33;1.73;;;;;;;;;;5054765;28;20031;-80